TimeEST,TemperatureF,Dew PointF,Humidity,Sea Level PressureIn,VisibilityMPH,Wind Direction,Wind SpeedMPH,Gust SpeedMPH,PrecipitationIn,Events,Conditions,WindDirDegrees,DateUTC
12:15 AM,62.6,62.6,100,30.07,10.0,NE,4.6,-,N/A,,Partly Cloudy,50,2012-12-06 05:15:00
12:35 AM,62.6,62.6,100,30.07,10.0,ENE,5.8,-,N/A,,Clear,60,2012-12-06 05:35:00
12:55 AM,62.6,62.6,100,30.07,9.0,NE,3.5,-,N/A,,Clear,50,2012-12-06 05:55:00
1:15 AM,60.8,60.8,100,30.06,10.0,ENE,3.5,-,N/A,,Clear,70,2012-12-06 06:15:00
1:55 AM,60.8,60.8,100,30.06,10.0,NE,4.6,-,N/A,,Clear,50,2012-12-06 06:55:00
2:15 AM,60.8,60.8,100,30.06,10.0,ENE,4.6,-,N/A,,Clear,60,2012-12-06 07:15:00
8:35 AM,64.4,62.6,94,30.06,9.0,ENE,3.5,-,N/A,,Partly Cloudy,60,2012-12-06 13:35:00
8:55 AM,64.4,62.6,94,30.07,10.0,NNE,3.5,-,N/A,,Scattered Clouds,20,2012-12-06 13:55:00
9:15 AM,66.2,60.8,83,30.07,9.0,NE,4.6,-,N/A,,Scattered Clouds,50,2012-12-06 14:15:00
9:35 AM,66.2,60.8,83,30.07,10.0,NNE,3.5,-,N/A,,Partly Cloudy,30,2012-12-06 14:35:00
9:55 AM,69.8,60.8,73,30.07,9.0,ENE,5.8,-,N/A,,Clear,60,2012-12-06 14:55:00
10:15 AM,71.6,60.8,69,30.07,10.0,ENE,8.1,-,N/A,,Clear,60,2012-12-06 15:15:00
10:35 AM,73.4,60.8,65,30.06,9.0,NE,6.9,-,N/A,,Clear,50,2012-12-06 15:35:00
10:55 AM,73.4,60.8,65,30.06,9.0,ENE,9.2,-,N/A,,Clear,60,2012-12-06 15:55:00
11:15 AM,75.2,59.0,57,30.05,8.0,NE,9.2,-,N/A,,Clear,40,2012-12-06 16:15:00
11:35 AM,75.2,59.0,57,30.04,9.0,NE,10.4,-,N/A,,Clear,40,2012-12-06 16:35:00
11:55 AM,75.2,60.8,61,30.03,9.0,ENE,6.9,-,N/A,,Scattered Clouds,60,2012-12-06 16:55:00
12:15 PM,77.0,59.0,54,30.02,8.0,ENE,8.1,-,N/A,,Scattered Clouds,70,2012-12-06 17:15:00
12:35 PM,75.2,57.2,53,30.01,9.0,NE,9.2,-,N/A,,Clear,50,2012-12-06 17:35:00
12:55 PM,75.2,59.0,57,29.99,8.0,NE,10.4,-,N/A,,Scattered Clouds,40,2012-12-06 17:55:00
1:15 PM,78.8,59.0,51,29.98,10.0,East,9.2,-,N/A,,Scattered Clouds,80,2012-12-06 18:15:00
1:35 PM,78.8,60.8,54,29.97,10.0,NNE,10.4,16.1,N/A,,Scattered Clouds,30,2012-12-06 18:35:00
1:55 PM,77.0,60.8,57,29.97,9.0,ENE,9.2,-,N/A,,Mostly Cloudy,60,2012-12-06 18:55:00
2:15 PM,78.8,60.8,54,29.96,9.0,East,11.5,-,N/A,,Scattered Clouds,90,2012-12-06 19:15:00
2:35 PM,78.8,60.8,54,29.96,9.0,East,9.2,-,N/A,,Partly Cloudy,80,2012-12-06 19:35:00
2:55 PM,78.8,60.8,54,29.95,9.0,East,8.1,-,N/A,,Clear,80,2012-12-06 19:55:00
3:15 PM,78.8,59.0,51,29.95,9.0,East,9.2,-,N/A,,Clear,90,2012-12-06 20:15:00
3:35 PM,77.0,59.0,54,29.95,9.0,East,8.1,-,N/A,,Partly Cloudy,90,2012-12-06 20:35:00
3:55 PM,78.8,59.0,51,29.95,9.0,ENE,6.9,-,N/A,,Partly Cloudy,60,2012-12-06 20:55:00
4:15 PM,77.0,57.2,50,29.95,9.0,East,6.9,-,N/A,,Scattered Clouds,80,2012-12-06 21:15:00
4:35 PM,75.2,59.0,57,29.96,9.0,NE,5.8,-,N/A,,Scattered Clouds,50,2012-12-06 21:35:00
4:55 PM,75.2,57.2,53,29.96,9.0,ENE,5.8,-,N/A,,Mostly Cloudy,60,2012-12-06 21:55:00
5:15 PM,73.4,57.2,57,29.96,9.0,East,3.5,-,N/A,,Mostly Cloudy,80,2012-12-06 22:15:00
5:35 PM,73.4,55.4,53,29.96,10.0,ENE,3.5,-,N/A,,Scattered Clouds,70,2012-12-06 22:35:00
5:55 PM,71.6,57.2,60,29.97,10.0,ENE,5.8,-,N/A,,Clear,70,2012-12-06 22:55:00
6:35 PM,71.6,57.2,60,29.98,10.0,ENE,4.6,-,N/A,,Mostly Cloudy,70,2012-12-06 23:35:00
6:55 PM,69.8,57.2,64,29.98,10.0,NE,5.8,-,N/A,,Partly Cloudy,50,2012-12-06 23:55:00
7:15 PM,69.8,59.0,68,29.99,10.0,NE,5.8,-,N/A,,Clear,50,2012-12-07 00:15:00
7:35 PM,68.0,59.0,73,29.99,10.0,NE,5.8,-,N/A,,Clear,50,2012-12-07 00:35:00
7:55 PM,68.0,60.8,78,29.99,10.0,NE,4.6,-,N/A,,Clear,50,2012-12-07 00:55:00
8:15 PM,66.2,60.8,83,30.00,10.0,East,4.6,-,N/A,,Clear,80,2012-12-07 01:15:00
8:35 PM,66.2,60.8,83,30.00,10.0,NE,4.6,-,N/A,,Clear,40,2012-12-07 01:35:00
8:55 PM,66.2,60.8,83,30.01,10.0,NE,5.8,-,N/A,,Clear,50,2012-12-07 01:55:00
9:15 PM,66.2,60.8,83,30.01,10.0,ENE,4.6,-,N/A,,Clear,70,2012-12-07 02:15:00
9:35 PM,64.4,60.8,88,30.01,10.0,ENE,3.5,-,N/A,,Clear,70,2012-12-07 02:35:00
9:55 PM,62.6,60.8,94,30.01,10.0,East,3.5,-,N/A,,Clear,80,2012-12-07 02:55:00
10:15 PM,64.4,62.6,94,30.00,10.0,ENE,3.5,-,N/A,,Clear,60,2012-12-07 03:15:00
10:35 PM,62.6,62.6,100,30.00,10.0,NNE,3.5,-,N/A,,Clear,30,2012-12-07 03:35:00
10:55 PM,62.6,62.6,100,30.00,10.0,Calm,Calm,-,N/A,,Clear,0,2012-12-07 03:55:00
11:15 PM,60.8,60.8,100,29.99,10.0,Calm,Calm,-,N/A,,Clear,0,2012-12-07 04:15:00
11:35 PM,60.8,60.8,100,29.99,10.0,Calm,Calm,-,N/A,,Clear,0,2012-12-07 04:35:00
11:55 PM,62.6,62.6,100,29.99,10.0,NE,4.6,-,N/A,,Clear,40,2012-12-07 04:55:00